sensor_id;sensor_type;location;lat;lon;timestamp;pressure;altitude;pressure_sealevel;temperature;humidity
64189;BME280;50493;50.970;10.082;2023-03-19T00:00:35;98964.44;;;11.55;64.82
64189;BME280;50493;50.970;10.082;2023-03-19T00:03:00;98973.09;;;11.57;64.81
64189;BME280;50493;50.970;10.082;2023-03-19T00:05:26;98973.19;;;11.54;64.85
64189;BME280;50493;50.970;10.082;2023-03-19T00:07:51;98969.63;;;11.56;64.41
64189;BME280;50493;50.970;10.082;2023-03-19T00:10:17;98963.63;;;11.53;64.30
64189;BME280;50493;50.970;10.082;2023-03-19T00:12:42;98973.09;;;11.57;64.21
64189;BME280;50493;50.970;10.082;2023-03-19T00:15:08;98972.16;;;11.59;63.98
64189;BME280;50493;50.970;10.082;2023-03-19T00:17:39;98971.38;;;11.56;64.16
64189;BME280;50493;50.970;10.082;2023-03-19T00:20:07;98971.38;;;11.56;63.98
64189;BME280;50493;50.970;10.082;2023-03-19T00:22:32;98970.09;;;11.42;64.30
64189;BME280;50493;50.970;10.082;2023-03-19T00:24:58;98968.44;;;11.38;64.43
64189;BME280;50493;50.970;10.082;2023-03-19T00:27:23;98974.66;;;11.36;64.49
64189;BME280;50493;50.970;10.082;2023-03-19T00:29:48;98966.94;;;11.31;64.47
64189;BME280;50493;50.970;10.082;2023-03-19T00:32:14;98976.34;;;11.37;63.99
64189;BME280;50493;50.970;10.082;2023-03-19T00:34:41;98984.97;;;11.40;63.73
64189;BME280;50493;50.970;10.082;2023-03-19T00:37:07;98980.56;;;11.42;63.39
64189;BME280;50493;50.970;10.082;2023-03-19T00:39:32;98979.22;;;11.29;64.03
64189;BME280;50493;50.970;10.082;2023-03-19T00:41:58;98976.56;;;11.30;64.05
64189;BME280;50493;50.970;10.082;2023-03-19T00:44:23;98985.97;;;11.36;63.56
64189;BME280;50493;50.970;10.082;2023-03-19T00:46:49;98976.44;;;11.34;63.66
64189;BME280;50493;50.970;10.082;2023-03-19T00:49:14;98982.56;;;11.32;63.73
64189;BME280;50493;50.970;10.082;2023-03-19T00:51:41;98980.56;;;11.42;63.06
64189;BME280;50493;50.970;10.082;2023-03-19T00:54:09;98982.66;;;11.58;59.36
64189;BME280;50493;50.970;10.082;2023-03-19T00:56:35;98985.03;;;11.67;61.42
64189;BME280;50493;50.970;10.082;2023-03-19T00:59:01;98982.63;;;11.31;63.02
64189;BME280;50493;50.970;10.082;2023-03-19T01:01:26;98986.78;;;11.10;64.07
64189;BME280;50493;50.970;10.082;2023-03-19T01:03:51;98991.66;;;10.92;64.83
64189;BME280;50493;50.970;10.082;2023-03-19T01:06:17;98994.81;;;11.04;64.28
64189;BME280;50493;50.970;10.082;2023-03-19T01:08:44;98990.47;;;11.03;64.12
64189;BME280;50493;50.970;10.082;2023-03-19T01:11:12;98985.38;;;10.98;64.17
64189;BME280;50493;50.970;10.082;2023-03-19T01:13:38;98983.50;;;11.03;64.11
64189;BME280;50493;50.970;10.082;2023-03-19T01:16:05;98977.59;;;11.25;62.91
64189;BME280;50493;50.970;10.082;2023-03-19T01:18:30;98985.88;;;11.39;62.38
64189;BME280;50493;50.970;10.082;2023-03-19T01:20:56;98982.78;;;11.26;62.65
64189;BME280;50493;50.970;10.082;2023-03-19T01:23:22;98978.69;;;11.18;62.54
64189;BME280;50493;50.970;10.082;2023-03-19T01:25:48;98981.50;;;11.11;63.10
64189;BME280;50493;50.970;10.082;2023-03-19T01:28:14;98976.22;;;11.13;63.02
64189;BME280;50493;50.970;10.082;2023-03-19T01:30:39;98982.56;;;11.04;63.38
64189;BME280;50493;50.970;10.082;2023-03-19T01:33:05;98985.06;;;11.09;63.16
64189;BME280;50493;50.970;10.082;2023-03-19T01:35:31;98985.94;;;11.08;63.03
64189;BME280;50493;50.970;10.082;2023-03-19T01:37:56;98990.50;;;11.01;63.36
64189;BME280;50493;50.970;10.082;2023-03-19T01:40:22;98989.16;;;10.88;63.71
64189;BME280;50493;50.970;10.082;2023-03-19T01:43:01;98985.34;;;10.70;64.57
64189;BME280;50493;50.970;10.082;2023-03-19T01:45:39;98986.06;;;10.73;64.19
64189;BME280;50493;50.970;10.082;2023-03-19T01:48:05;98985.13;;;10.77;64.05
64189;BME280;50493;50.970;10.082;2023-03-19T01:50:39;98987.59;;;10.82;63.91
64189;BME280;50493;50.970;10.082;2023-03-19T01:53:06;98985.13;;;10.77;63.69
64189;BME280;50493;50.970;10.082;2023-03-19T01:55:31;98977.44;;;10.71;58.40
64189;BME280;50493;50.970;10.082;2023-03-19T01:57:58;98972.03;;;10.46;62.05
64189;BME280;50493;50.970;10.082;2023-03-19T02:00:25;98967.94;;;10.37;65.61
64189;BME280;50493;50.970;10.082;2023-03-19T02:02:53;98973.38;;;10.28;65.58
64189;BME280;50493;50.970;10.082;2023-03-19T02:05:21;98975.25;;;10.23;65.93
64189;BME280;50493;50.970;10.082;2023-03-19T02:07:51;98975.25;;;10.23;65.72
64189;BME280;50493;50.970;10.082;2023-03-19T02:10:18;98967.41;;;10.23;65.60
64189;BME280;50493;50.970;10.082;2023-03-19T02:12:44;98964.91;;;10.20;65.65
64189;BME280;50493;50.970;10.082;2023-03-19T02:15:12;98967.31;;;10.26;65.20
64189;BME280;50493;50.970;10.082;2023-03-19T02:17:37;98964.56;;;10.32;59.47
64189;BME280;50493;50.970;10.082;2023-03-19T02:20:07;98964.91;;;10.20;65.25
64189;BME280;50493;50.970;10.082;2023-03-19T02:22:42;98972.72;;;10.20;65.11
64189;BME280;50493;50.970;10.082;2023-03-19T02:25:13;98971.31;;;10.41;57.88
64189;BME280;50493;50.970;10.082;2023-03-19T02:27:42;98970.91;;;10.22;63.92
64189;BME280;50493;50.970;10.082;2023-03-19T02:30:19;98970.28;;;10.13;64.80
64189;BME280;50493;50.970;10.082;2023-03-19T02:32:45;98972.56;;;9.93;65.78
64189;BME280;50493;50.970;10.082;2023-03-19T02:35:10;98973.72;;;9.81;66.45
64189;BME280;50493;50.970;10.082;2023-03-19T02:37:36;98970.31;;;9.79;66.49
64189;BME280;50493;50.970;10.082;2023-03-19T02:40:03;98974.59;;;9.82;66.34
64189;BME280;50493;50.970;10.082;2023-03-19T02:42:33;98982.38;;;9.83;66.14
64189;BME280;50493;50.970;10.082;2023-03-19T02:44:59;98982.16;;;9.92;65.65
64189;BME280;50493;50.970;10.082;2023-03-19T02:47:26;98977.78;;;9.93;65.92
64189;BME280;50493;50.970;10.082;2023-03-19T02:49:52;98971.06;;;9.83;65.94
64189;BME280;50493;50.970;10.082;2023-03-19T02:52:18;98974.50;;;9.85;65.77
64189;BME280;50493;50.970;10.082;2023-03-19T02:54:44;98975.16;;;9.93;65.40
64189;BME280;50493;50.970;10.082;2023-03-19T02:57:10;98982.75;;;10.02;64.86
64189;BME280;50493;50.970;10.082;2023-03-19T02:59:36;98985.38;;;10.02;65.08
64189;BME280;50493;50.970;10.082;2023-03-19T03:02:04;98977.69;;;9.96;64.23
64189;BME280;50493;50.970;10.082;2023-03-19T03:04:30;98972.72;;;9.87;64.42
64189;BME280;50493;50.970;10.082;2023-03-19T03:06:56;98976.38;;;9.79;65.52
64189;BME280;50493;50.970;10.082;2023-03-19T03:09:21;98978.88;;;9.83;65.40
64189;BME280;50493;50.970;10.082;2023-03-19T03:11:47;98982.19;;;9.89;65.15
64189;BME280;50493;50.970;10.082;2023-03-19T03:14:13;98985.03;;;9.82;65.46
64189;BME280;50493;50.970;10.082;2023-03-19T03:16:38;98988.00;;;9.66;65.94
64189;BME280;50493;50.970;10.082;2023-03-19T03:19:05;98987.75;;;9.77;65.52
64189;BME280;50493;50.970;10.082;2023-03-19T03:21:31;98981.75;;;9.73;65.71
64189;BME280;50493;50.970;10.082;2023-03-19T03:23:56;98995.34;;;9.86;65.02
64189;BME280;50493;50.970;10.082;2023-03-19T03:26:21;99009.63;;;9.71;65.78
64189;BME280;50493;50.970;10.082;2023-03-19T03:28:47;99000.38;;;9.58;66.44
64189;BME280;50493;50.970;10.082;2023-03-19T03:31:13;98995.56;;;9.77;65.33
64189;BME280;50493;50.970;10.082;2023-03-19T03:33:38;98992.03;;;9.79;65.09
64189;BME280;50493;50.970;10.082;2023-03-19T03:36:05;98992.19;;;9.73;65.18
64189;BME280;50493;50.970;10.082;2023-03-19T03:38:31;98991.19;;;9.79;65.19
64189;BME280;50493;50.970;10.082;2023-03-19T03:40:57;98991.94;;;9.83;64.57
64189;BME280;50493;50.970;10.082;2023-03-19T03:43:22;98997.13;;;10.19;62.87
64189;BME280;50493;50.970;10.082;2023-03-19T03:45:48;99001.28;;;10.26;61.69
64189;BME280;50493;50.970;10.082;2023-03-19T03:48:14;99005.97;;;9.78;64.60
64189;BME280;50493;50.970;10.082;2023-03-19T03:50:39;99008.13;;;9.61;65.32
64189;BME280;50493;50.970;10.082;2023-03-19T03:53:06;99004.63;;;9.62;65.25
64189;BME280;50493;50.970;10.082;2023-03-19T03:55:33;99008.81;;;9.69;64.94
64189;BME280;50493;50.970;10.082;2023-03-19T03:57:58;99001.00;;;9.68;64.47
64189;BME280;50493;50.970;10.082;2023-03-19T04:00:24;99002.91;;;9.61;64.61
64189;BME280;50493;50.970;10.082;2023-03-19T04:02:50;98994.19;;;9.62;65.03
64189;BME280;50493;50.970;10.082;2023-03-19T04:05:16;99001.94;;;9.67;64.61
64189;BME280;50493;50.970;10.082;2023-03-19T04:07:42;98999.84;;;9.79;63.49
64189;BME280;50493;50.970;10.082;2023-03-19T04:10:10;99011.06;;;9.85;63.22
64189;BME280;50493;50.970;10.082;2023-03-19T04:12:37;99002.69;;;9.70;64.01
64189;BME280;50493;50.970;10.082;2023-03-19T04:15:03;99005.50;;;9.62;63.72
64189;BME280;50493;50.970;10.082;2023-03-19T04:17:29;98996.03;;;9.57;64.12
64189;BME280;50493;50.970;10.082;2023-03-19T04:19:54;98998.84;;;9.49;64.83
64189;BME280;50493;50.970;10.082;2023-03-19T04:22:20;99001.69;;;9.40;65.24
64189;BME280;50493;50.970;10.082;2023-03-19T04:24:46;99014.59;;;9.44;65.05
64189;BME280;50493;50.970;10.082;2023-03-19T04:27:12;99014.75;;;9.38;65.24
64189;BME280;50493;50.970;10.082;2023-03-19T04:29:38;99016.66;;;9.32;64.91
64189;BME280;50493;50.970;10.082;2023-03-19T04:32:04;99017.56;;;9.29;65.65
64189;BME280;50493;50.970;10.082;2023-03-19T04:34:29;99011.72;;;9.19;65.65
64189;BME280;50493;50.970;10.082;2023-03-19T04:36:56;99015.44;;;9.07;66.10
64189;BME280;50493;50.970;10.082;2023-03-19T04:39:22;99014.13;;;9.27;64.67
64189;BME280;50493;50.970;10.082;2023-03-19T04:41:48;99014.13;;;9.27;64.69
64189;BME280;50493;50.970;10.082;2023-03-19T04:44:15;99012.47;;;9.23;65.03
64189;BME280;50493;50.970;10.082;2023-03-19T04:46:41;99006.41;;;9.22;65.27
64189;BME280;50493;50.970;10.082;2023-03-19T04:49:06;99007.47;;;9.13;65.41
64189;BME280;50493;50.970;10.082;2023-03-19T04:51:32;99013.78;;;9.03;66.01
64189;BME280;50493;50.970;10.082;2023-03-19T04:53:57;99024.06;;;9.11;65.21
64189;BME280;50493;50.970;10.082;2023-03-19T04:56:22;99014.81;;;8.93;66.39
64189;BME280;50493;50.970;10.082;2023-03-19T04:58:48;99028.31;;;8.70;67.72
64189;BME280;50493;50.970;10.082;2023-03-19T05:01:14;99023.75;;;8.83;66.73
64189;BME280;50493;50.970;10.082;2023-03-19T05:03:40;99023.66;;;8.86;66.53
64189;BME280;50493;50.970;10.082;2023-03-19T05:06:05;99014.81;;;8.93;65.98
64189;BME280;50493;50.970;10.082;2023-03-19T05:08:31;99018.03;;;9.07;65.28
64189;BME280;50493;50.970;10.082;2023-03-19T05:10:56;99021.91;;;9.30;62.05
64189;BME280;50493;50.970;10.082;2023-03-19T05:13:21;99023.09;;;9.15;64.12
64189;BME280;50493;50.970;10.082;2023-03-19T05:15:47;99023.81;;;9.22;64.32
64189;BME280;50493;50.970;10.082;2023-03-19T05:18:13;99030.41;;;9.38;63.62
64189;BME280;50493;50.970;10.082;2023-03-19T05:20:39;99022.38;;;9.48;63.11
64189;BME280;50493;50.970;10.082;2023-03-19T05:23:05;99024.06;;;9.49;62.82
64189;BME280;50493;50.970;10.082;2023-03-19T05:25:30;99033.06;;;9.35;63.41
64189;BME280;50493;50.970;10.082;2023-03-19T05:27:56;99031.78;;;9.55;62.24
64189;BME280;50493;50.970;10.082;2023-03-19T05:30:22;99034.41;;;9.53;62.04
64189;BME280;50493;50.970;10.082;2023-03-19T05:32:47;99038.94;;;9.83;58.75
64189;BME280;50493;50.970;10.082;2023-03-19T05:35:14;99044.75;;;9.58;60.72
64189;BME280;50493;50.970;10.082;2023-03-19T05:37:39;99045.22;;;9.36;62.70
64189;BME280;50493;50.970;10.082;2023-03-19T05:40:06;99045.41;;;9.27;63.42
64189;BME280;50493;50.970;10.082;2023-03-19T05:42:31;99046.41;;;9.21;63.51
64189;BME280;50493;50.970;10.082;2023-03-19T05:44:57;99053.91;;;8.94;64.91
64189;BME280;50493;50.970;10.082;2023-03-19T05:47:23;99058.25;;;8.94;65.17
64189;BME280;50493;50.970;10.082;2023-03-19T05:49:49;99048.59;;;9.01;64.22
64189;BME280;50493;50.970;10.082;2023-03-19T05:52:16;99046.78;;;9.04;64.34
64189;BME280;50493;50.970;10.082;2023-03-19T05:54:41;99048.59;;;9.01;64.18
64189;BME280;50493;50.970;10.082;2023-03-19T05:57:06;99057.06;;;9.10;63.76
64189;BME280;50493;50.970;10.082;2023-03-19T05:59:32;99049.31;;;9.07;63.87
64189;BME280;50493;50.970;10.082;2023-03-19T06:01:57;99047.75;;;9.00;64.10
64189;BME280;50493;50.970;10.082;2023-03-19T06:04:23;99055.97;;;8.78;65.18
64189;BME280;50493;50.970;10.082;2023-03-19T06:06:48;99056.28;;;9.08;62.13
64189;BME280;50493;50.970;10.082;2023-03-19T06:09:15;99054.53;;;9.07;62.92
64189;BME280;50493;50.970;10.082;2023-03-19T06:11:40;99061.34;;;9.15;63.12
64189;BME280;50493;50.970;10.082;2023-03-19T06:14:07;99057.66;;;9.25;62.69
64189;BME280;50493;50.970;10.082;2023-03-19T06:16:32;99060.22;;;9.26;62.65
64189;BME280;50493;50.970;10.082;2023-03-19T06:18:57;99064.38;;;9.35;62.23
64189;BME280;50493;50.970;10.082;2023-03-19T06:21:23;99063.31;;;9.44;61.79
64189;BME280;50493;50.970;10.082;2023-03-19T06:23:53;99065.25;;;9.36;61.98
64189;BME280;50493;50.970;10.082;2023-03-19T06:26:20;99071.00;;;9.50;61.51
64189;BME280;50493;50.970;10.082;2023-03-19T06:28:45;99070.22;;;9.86;59.99
64189;BME280;50493;50.970;10.082;2023-03-19T06:31:10;99081.50;;;10.22;57.86
64189;BME280;50493;50.970;10.082;2023-03-19T06:33:36;99085.84;;;10.23;57.84
64189;BME280;50493;50.970;10.082;2023-03-19T06:36:01;99090.16;;;9.88;59.21
64189;BME280;50493;50.970;10.082;2023-03-19T06:38:27;99088.78;;;9.73;60.21
64189;BME280;50493;50.970;10.082;2023-03-19T06:40:52;99089.56;;;9.75;60.12
64189;BME280;50493;50.970;10.082;2023-03-19T06:43:19;99098.06;;;9.46;61.32
64189;BME280;50493;50.970;10.082;2023-03-19T06:45:44;99093.56;;;9.53;61.26
64189;BME280;50493;50.970;10.082;2023-03-19T06:48:09;99090.41;;;9.77;60.22
64189;BME280;50493;50.970;10.082;2023-03-19T06:50:35;99089.94;;;9.60;60.78
64189;BME280;50493;50.970;10.082;2023-03-19T06:53:00;99092.19;;;9.75;60.43
64189;BME280;50493;50.970;10.082;2023-03-19T06:55:26;99088.84;;;10.06;59.51
64189;BME280;50493;50.970;10.082;2023-03-19T06:57:51;99096.03;;;9.98;59.01
64189;BME280;50493;50.970;10.082;2023-03-19T07:00:19;99094.63;;;10.55;57.83
64189;BME280;50493;50.970;10.082;2023-03-19T07:02:44;99092.94;;;10.53;58.15
64189;BME280;50493;50.970;10.082;2023-03-19T07:05:10;99098.41;;;10.43;58.49
64189;BME280;50493;50.970;10.082;2023-03-19T07:07:35;99097.75;;;9.99;59.78
64189;BME280;50493;50.970;10.082;2023-03-19T07:10:01;99113.69;;;9.87;61.56
64189;BME280;50493;50.970;10.082;2023-03-19T07:12:26;99121.47;;;10.62;57.80
64189;BME280;50493;50.970;10.082;2023-03-19T07:14:52;99117.31;;;10.55;57.10
64189;BME280;50493;50.970;10.082;2023-03-19T07:17:19;99109.66;;;10.47;57.92
64189;BME280;50493;50.970;10.082;2023-03-19T07:19:44;99121.13;;;10.04;58.77
64189;BME280;50493;50.970;10.082;2023-03-19T07:22:10;99127.03;;;9.73;59.82
64189;BME280;50493;50.970;10.082;2023-03-19T07:24:35;99135.06;;;10.40;58.07
64189;BME280;50493;50.970;10.082;2023-03-19T07:27:01;99134.22;;;11.06;56.08
64189;BME280;50493;50.970;10.082;2023-03-19T07:29:27;99120.94;;;11.13;55.00
64189;BME280;50493;50.970;10.082;2023-03-19T07:31:52;99130.38;;;10.88;56.50
64189;BME280;50493;50.970;10.082;2023-03-19T07:34:19;99127.72;;;10.56;57.89
64189;BME280;50493;50.970;10.082;2023-03-19T07:36:44;99127.91;;;10.48;58.79
64189;BME280;50493;50.970;10.082;2023-03-19T07:39:09;99131.94;;;9.88;61.93
64189;BME280;50493;50.970;10.082;2023-03-19T07:41:35;99137.28;;;9.82;62.25
64189;BME280;50493;50.970;10.082;2023-03-19T07:44:00;99130.97;;;10.28;58.68
64189;BME280;50493;50.970;10.082;2023-03-19T07:46:26;99130.13;;;10.64;58.83
64189;BME280;50493;50.970;10.082;2023-03-19T07:48:52;99134.81;;;10.51;59.25
64189;BME280;50493;50.970;10.082;2023-03-19T07:51:19;99133.50;;;9.95;62.06
64189;BME280;50493;50.970;10.082;2023-03-19T07:53:45;99126.72;;;10.60;60.17
64189;BME280;50493;50.970;10.082;2023-03-19T07:56:11;99128.91;;;10.05;61.54
64189;BME280;50493;50.970;10.082;2023-03-19T07:58:36;99120.81;;;10.54;60.01
64189;BME280;50493;50.970;10.082;2023-03-19T08:01:02;99129.19;;;10.30;59.89
64189;BME280;50493;50.970;10.082;2023-03-19T08:03:27;99122.47;;;10.89;59.12
64189;BME280;50493;50.970;10.082;2023-03-19T08:05:53;99129.63;;;11.15;57.21
64189;BME280;50493;50.970;10.082;2023-03-19T08:08:20;99134.22;;;11.07;56.06
64189;BME280;50493;50.970;10.082;2023-03-19T08:10:45;99128.22;;;11.93;55.68
64189;BME280;50493;50.970;10.082;2023-03-19T08:13:12;99127.53;;;11.87;54.52
64189;BME280;50493;50.970;10.082;2023-03-19T08:15:38;99130.44;;;11.47;54.60
64189;BME280;50493;50.970;10.082;2023-03-19T08:18:05;99142.81;;;11.42;55.15
64189;BME280;50493;50.970;10.082;2023-03-19T08:20:30;99144.72;;;11.67;53.80
64189;BME280;50493;50.970;10.082;2023-03-19T08:22:56;99140.84;;;11.51;54.30
64189;BME280;50493;50.970;10.082;2023-03-19T08:25:23;99143.25;;;11.87;53.79
64189;BME280;50493;50.970;10.082;2023-03-19T08:27:48;99143.78;;;12.25;52.92
64189;BME280;50493;50.970;10.082;2023-03-19T08:30:15;99139.31;;;12.82;51.49
64189;BME280;50493;50.970;10.082;2023-03-19T08:32:41;99146.53;;;12.48;52.77
64189;BME280;50493;50.970;10.082;2023-03-19T08:35:09;99150.22;;;12.70;52.04
64189;BME280;50493;50.970;10.082;2023-03-19T08:37:35;99150.28;;;13.42;50.46
64189;BME280;50493;50.970;10.082;2023-03-19T08:40:01;99151.41;;;13.35;51.49
64189;BME280;50493;50.970;10.082;2023-03-19T08:42:27;99152.25;;;12.61;53.82
64189;BME280;50493;50.970;10.082;2023-03-19T08:44:54;99154.00;;;11.79;55.27
64189;BME280;50493;50.970;10.082;2023-03-19T08:47:19;99155.59;;;12.65;53.01
64189;BME280;50493;50.970;10.082;2023-03-19T08:49:48;99153.47;;;13.50;52.04
64189;BME280;50493;50.970;10.082;2023-03-19T08:52:14;99150.50;;;13.60;50.50
64189;BME280;50493;50.970;10.082;2023-03-19T08:54:39;99150.69;;;13.55;50.79
64189;BME280;50493;50.970;10.082;2023-03-19T08:57:04;99155.81;;;13.82;50.06
64189;BME280;50493;50.970;10.082;2023-03-19T08:59:31;99158.78;;;13.73;50.61
64189;BME280;50493;50.970;10.082;2023-03-19T09:01:56;99161.09;;;14.04;50.12
64189;BME280;50493;50.970;10.082;2023-03-19T09:04:22;99160.84;;;14.10;50.58
64189;BME280;50493;50.970;10.082;2023-03-19T09:06:47;99158.59;;;14.01;50.11
64189;BME280;50493;50.970;10.082;2023-03-19T09:09:16;99161.78;;;13.86;50.58
64189;BME280;50493;50.970;10.082;2023-03-19T09:11:42;99164.63;;;14.03;50.40
64189;BME280;50493;50.970;10.082;2023-03-19T09:14:07;99159.88;;;13.67;51.67
64189;BME280;50493;50.970;10.082;2023-03-19T09:16:34;99165.06;;;14.14;49.77
64189;BME280;50493;50.970;10.082;2023-03-19T09:19:00;99155.94;;;14.23;48.33
64189;BME280;50493;50.970;10.082;2023-03-19T09:21:25;99152.22;;;14.29;51.66
64189;BME280;50493;50.970;10.082;2023-03-19T09:23:50;99160.72;;;14.56;50.45
64189;BME280;50493;50.970;10.082;2023-03-19T09:26:16;99154.00;;;14.71;48.89
64189;BME280;50493;50.970;10.082;2023-03-19T09:28:42;99146.50;;;14.82;47.95
64189;BME280;50493;50.970;10.082;2023-03-19T09:31:08;99150.94;;;14.60;48.43
64189;BME280;50493;50.970;10.082;2023-03-19T09:33:35;99155.66;;;15.34;47.21
64189;BME280;50493;50.970;10.082;2023-03-19T09:36:00;99149.91;;;15.64;46.39
64189;BME280;50493;50.970;10.082;2023-03-19T09:38:25;99152.47;;;15.46;46.45
64189;BME280;50493;50.970;10.082;2023-03-19T09:41:06;99153.25;;;15.09;47.84
64189;BME280;50493;50.970;10.082;2023-03-19T09:43:40;99152.34;;;15.88;46.33
64189;BME280;50493;50.970;10.082;2023-03-19T09:46:12;99153.44;;;16.02;44.91
64189;BME280;50493;50.970;10.082;2023-03-19T09:48:45;99158.09;;;15.58;46.94
64189;BME280;50493;50.970;10.082;2023-03-19T09:51:17;99163.75;;;16.07;44.40
64189;BME280;50493;50.970;10.082;2023-03-19T09:53:48;99165.56;;;16.24;44.20
64189;BME280;50493;50.970;10.082;2023-03-19T09:56:16;99166.53;;;16.41;44.88
64189;BME280;50493;50.970;10.082;2023-03-19T09:58:43;99168.84;;;14.72;47.44
64189;BME280;50493;50.970;10.082;2023-03-19T10:01:22;99158.22;;;14.32;50.74
64189;BME280;50493;50.970;10.082;2023-03-19T10:04:00;99163.00;;;15.27;48.37
64189;BME280;50493;50.970;10.082;2023-03-19T10:06:29;99165.91;;;14.37;51.01
64189;BME280;50493;50.970;10.082;2023-03-19T10:09:07;99163.34;;;14.13;51.58
64189;BME280;50493;50.970;10.082;2023-03-19T10:11:47;99158.31;;;13.38;52.24
64189;BME280;50493;50.970;10.082;2023-03-19T10:14:31;99160.41;;;12.25;57.12
64189;BME280;50493;50.970;10.082;2023-03-19T10:17:02;99166.72;;;12.72;55.02
64189;BME280;50493;50.970;10.082;2023-03-19T10:19:36;99167.41;;;12.52;57.36
64189;BME280;50493;50.970;10.082;2023-03-19T10:22:07;99169.66;;;12.36;56.37
64189;BME280;50493;50.970;10.082;2023-03-19T10:24:38;99171.72;;;11.69;58.00
64189;BME280;50493;50.970;10.082;2023-03-19T10:27:09;99171.69;;;12.27;58.06
64189;BME280;50493;50.970;10.082;2023-03-19T10:29:37;99173.34;;;11.73;58.63
64189;BME280;50493;50.970;10.082;2023-03-19T10:32:10;99166.81;;;11.57;60.26
64189;BME280;50493;50.970;10.082;2023-03-19T10:34:41;99167.75;;;12.41;56.73
64189;BME280;50493;50.970;10.082;2023-03-19T10:37:14;99156.25;;;14.38;51.16
64189;BME280;50493;50.970;10.082;2023-03-19T10:39:43;99154.19;;;14.02;52.61
64189;BME280;50493;50.970;10.082;2023-03-19T10:42:19;99164.91;;;13.49;51.58
64189;BME280;50493;50.970;10.082;2023-03-19T10:44:52;99158.13;;;13.90;51.74
64189;BME280;50493;50.970;10.082;2023-03-19T10:47:23;99159.53;;;15.06;50.53
64189;BME280;50493;50.970;10.082;2023-03-19T10:49:51;99168.50;;;13.94;53.49
64189;BME280;50493;50.970;10.082;2023-03-19T10:52:20;99158.59;;;14.87;51.85
64189;BME280;50493;50.970;10.082;2023-03-19T10:54:46;99165.31;;;15.73;46.94
64189;BME280;50493;50.970;10.082;2023-03-19T10:57:21;99165.97;;;16.34;45.01
64189;BME280;50493;50.970;10.082;2023-03-19T10:59:49;99163.03;;;16.58;44.72
64189;BME280;50493;50.970;10.082;2023-03-19T11:02:16;99163.66;;;16.45;44.78
64189;BME280;50493;50.970;10.082;2023-03-19T11:04:42;99162.09;;;15.85;46.03
64189;BME280;50493;50.970;10.082;2023-03-19T11:07:11;99169.56;;;14.55;50.91
64189;BME280;50493;50.970;10.082;2023-03-19T11:09:38;99165.78;;;14.40;52.25
64189;BME280;50493;50.970;10.082;2023-03-19T11:12:06;99167.75;;;12.94;56.68
64189;BME280;50493;50.970;10.082;2023-03-19T11:14:35;99158.81;;;13.95;52.91
64189;BME280;50493;50.970;10.082;2023-03-19T11:17:03;99162.13;;;13.05;54.77
64189;BME280;50493;50.970;10.082;2023-03-19T11:19:32;99156.84;;;13.78;53.94
64189;BME280;50493;50.970;10.082;2023-03-19T11:22:12;99157.13;;;13.46;55.94
64189;BME280;50493;50.970;10.082;2023-03-19T11:24:40;99165.38;;;12.87;56.39
64189;BME280;50493;50.970;10.082;2023-03-19T11:27:07;99148.41;;;12.97;57.04
64189;BME280;50493;50.970;10.082;2023-03-19T11:29:34;99157.13;;;13.46;54.26
64189;BME280;50493;50.970;10.082;2023-03-19T11:32:11;99162.75;;;13.12;56.00
64189;BME280;50493;50.970;10.082;2023-03-19T11:34:44;99152.97;;;13.41;55.15
64189;BME280;50493;50.970;10.082;2023-03-19T11:37:19;99146.91;;;13.62;55.60
64189;BME280;50493;50.970;10.082;2023-03-19T11:39:51;99147.16;;;13.78;56.71
64189;BME280;50493;50.970;10.082;2023-03-19T11:42:33;99144.50;;;13.09;55.73
64189;BME280;50493;50.970;10.082;2023-03-19T11:45:09;99140.28;;;15.25;50.66
64189;BME280;50493;50.970;10.082;2023-03-19T11:47:42;99134.69;;;14.93;51.10
64189;BME280;50493;50.970;10.082;2023-03-19T11:50:20;99132.53;;;14.60;51.69
64189;BME280;50493;50.970;10.082;2023-03-19T11:53:00;99127.25;;;14.80;50.15
64189;BME280;50493;50.970;10.082;2023-03-19T11:55:30;99129.19;;;13.67;53.41
64189;BME280;50493;50.970;10.082;2023-03-19T11:58:22;99127.06;;;14.01;53.90
64189;BME280;50493;50.970;10.082;2023-03-19T12:00:53;99125.00;;;14.73;50.83
64189;BME280;50493;50.970;10.082;2023-03-19T12:04:09;99123.47;;;13.80;53.76
64189;BME280;50493;50.970;10.082;2023-03-19T12:06:47;99121.88;;;14.83;52.16
64189;BME280;50493;50.970;10.082;2023-03-19T12:09:23;99122.97;;;14.16;52.37
64189;BME280;50493;50.970;10.082;2023-03-19T12:11:53;99114.25;;;14.57;53.02
64189;BME280;50493;50.970;10.082;2023-03-19T12:14:33;99116.19;;;14.10;53.45
64189;BME280;50493;50.970;10.082;2023-03-19T12:17:18;99108.66;;;14.44;52.28
64189;BME280;50493;50.970;10.082;2023-03-19T12:19:57;99105.03;;;14.67;53.06
64189;BME280;50493;50.970;10.082;2023-03-19T12:22:36;99094.91;;;16.13;50.62
64189;BME280;50493;50.970;10.082;2023-03-19T12:25:39;99097.72;;;13.90;53.49
64189;BME280;50493;50.970;10.082;2023-03-19T12:28:13;99090.50;;;14.17;54.01
64189;BME280;50493;50.970;10.082;2023-03-19T12:30:45;99086.91;;;14.40;53.63
64189;BME280;50493;50.970;10.082;2023-03-19T12:33:25;99088.06;;;13.90;54.74
64189;BME280;50493;50.970;10.082;2023-03-19T12:35:59;99091.81;;;15.29;51.71
64189;BME280;50493;50.970;10.082;2023-03-19T12:38:32;99078.38;;;16.45;48.29
64189;BME280;50493;50.970;10.082;2023-03-19T12:41:04;99084.66;;;16.77;45.94
64189;BME280;50493;50.970;10.082;2023-03-19T12:43:34;99084.50;;;16.45;46.66
64189;BME280;50493;50.970;10.082;2023-03-19T12:46:05;99075.53;;;15.21;50.62
64189;BME280;50493;50.970;10.082;2023-03-19T12:48:36;99073.28;;;15.88;46.54
64189;BME280;50493;50.970;10.082;2023-03-19T12:51:06;99068.88;;;14.72;48.96
64189;BME280;50493;50.970;10.082;2023-03-19T12:53:41;99073.47;;;14.46;50.17
64189;BME280;50493;50.970;10.082;2023-03-19T12:56:12;99067.19;;;15.30;47.01